sensor_id;sensor_type;location;lat;lon;timestamp;P1;durP1;ratioP1;P2;durP2;ratioP2
69410;SDS011;56604;48.652;9.194;2024-01-10T00:01:06;24.97;;;10.83;;
69410;SDS011;56604;48.652;9.194;2024-01-10T00:03:31;20.27;;;10.50;;
69410;SDS011;56604;48.652;9.194;2024-01-10T00:05:57;21.53;;;11.20;;
69410;SDS011;56604;48.652;9.194;2024-01-10T00:08:22;21.33;;;10.20;;
69410;SDS011;56604;48.652;9.194;2024-01-10T00:10:48;19.07;;;9.57;;
69410;SDS011;56604;48.652;9.194;2024-01-10T00:13:13;19.23;;;10.13;;
69410;SDS011;56604;48.652;9.194;2024-01-10T00:15:38;27.90;;;9.87;;
69410;SDS011;56604;48.652;9.194;2024-01-10T00:18:03;19.23;;;10.00;;
69410;SDS011;56604;48.652;9.194;2024-01-10T00:20:29;18.53;;;10.10;;
69410;SDS011;56604;48.652;9.194;2024-01-10T00:22:54;23.20;;;11.73;;
69410;SDS011;56604;48.652;9.194;2024-01-10T00:25:19;20.40;;;10.90;;
69410;SDS011;56604;48.652;9.194;2024-01-10T00:27:45;20.00;;;9.53;;
69410;SDS011;56604;48.652;9.194;2024-01-10T00:30:10;15.37;;;8.00;;
69410;SDS011;56604;48.652;9.194;2024-01-10T00:32:35;19.90;;;8.80;;
69410;SDS011;56604;48.652;9.194;2024-01-10T00:35:01;20.33;;;9.37;;
69410;SDS011;56604;48.652;9.194;2024-01-10T00:37:26;15.93;;;9.13;;
69410;SDS011;56604;48.652;9.194;2024-01-10T00:39:52;21.60;;;9.17;;
69410;SDS011;56604;48.652;9.194;2024-01-10T00:42:17;20.77;;;8.50;;
69410;SDS011;56604;48.652;9.194;2024-01-10T00:44:43;17.73;;;7.10;;
69410;SDS011;56604;48.652;9.194;2024-01-10T00:47:09;14.00;;;7.27;;
69410;SDS011;56604;48.652;9.194;2024-01-10T00:49:35;15.80;;;7.73;;
69410;SDS011;56604;48.652;9.194;2024-01-10T00:52:00;14.70;;;6.97;;
69410;SDS011;56604;48.652;9.194;2024-01-10T00:54:26;15.63;;;8.80;;
69410;SDS011;56604;48.652;9.194;2024-01-10T00:56:51;12.27;;;7.77;;
69410;SDS011;56604;48.652;9.194;2024-01-10T00:59:17;19.27;;;7.67;;
69410;SDS011;56604;48.652;9.194;2024-01-10T01:01:42;13.63;;;7.73;;
69410;SDS011;56604;48.652;9.194;2024-01-10T01:04:07;13.33;;;7.53;;
69410;SDS011;56604;48.652;9.194;2024-01-10T01:06:33;20.87;;;9.07;;
69410;SDS011;56604;48.652;9.194;2024-01-10T01:08:58;13.30;;;6.83;;
69410;SDS011;56604;48.652;9.194;2024-01-10T01:11:23;14.53;;;7.13;;
69410;SDS011;56604;48.652;9.194;2024-01-10T01:13:49;14.20;;;6.83;;
69410;SDS011;56604;48.652;9.194;2024-01-10T01:16:14;19.17;;;8.03;;
69410;SDS011;56604;48.652;9.194;2024-01-10T01:18:39;16.77;;;8.33;;
69410;SDS011;56604;48.652;9.194;2024-01-10T01:21:05;18.53;;;7.60;;
69410;SDS011;56604;48.652;9.194;2024-01-10T01:23:30;16.33;;;7.13;;
69410;SDS011;56604;48.652;9.194;2024-01-10T01:25:55;13.83;;;7.70;;
69410;SDS011;56604;48.652;9.194;2024-01-10T01:28:21;18.60;;;7.20;;
69410;SDS011;56604;48.652;9.194;2024-01-10T01:30:46;13.07;;;7.40;;
69410;SDS011;56604;48.652;9.194;2024-01-10T01:33:11;11.67;;;7.03;;
69410;SDS011;56604;48.652;9.194;2024-01-10T01:35:37;21.40;;;8.27;;
69410;SDS011;56604;48.652;9.194;2024-01-10T01:38:02;12.63;;;7.70;;
69410;SDS011;56604;48.652;9.194;2024-01-10T01:40:27;37.13;;;7.70;;
69410;SDS011;56604;48.652;9.194;2024-01-10T01:42:53;13.03;;;7.43;;
69410;SDS011;56604;48.652;9.194;2024-01-10T01:45:18;19.83;;;8.30;;
69410;SDS011;56604;48.652;9.194;2024-01-10T01:47:44;18.70;;;9.00;;
69410;SDS011;56604;48.652;9.194;2024-01-10T01:50:10;19.23;;;7.93;;
69410;SDS011;56604;48.652;9.194;2024-01-10T01:52:35;18.73;;;8.33;;
69410;SDS011;56604;48.652;9.194;2024-01-10T01:55:02;36.30;;;15.83;;
69410;SDS011;56604;48.652;9.194;2024-01-10T01:57:27;20.07;;;10.43;;
69410;SDS011;56604;48.652;9.194;2024-01-10T01:59:53;27.00;;;11.47;;
69410;SDS011;56604;48.652;9.194;2024-01-10T02:02:18;13.90;;;6.67;;
69410;SDS011;56604;48.652;9.194;2024-01-10T02:04:45;26.87;;;13.20;;
69410;SDS011;56604;48.652;9.194;2024-01-10T02:07:11;12.80;;;6.57;;
69410;SDS011;56604;48.652;9.194;2024-01-10T02:09:37;24.63;;;10.43;;
69410;SDS011;56604;48.652;9.194;2024-01-10T02:12:03;16.63;;;8.80;;
69410;SDS011;56604;48.652;9.194;2024-01-10T02:14:29;20.40;;;7.50;;
69410;SDS011;56604;48.652;9.194;2024-01-10T02:16:54;19.97;;;7.80;;
69410;SDS011;56604;48.652;9.194;2024-01-10T02:19:20;20.33;;;7.87;;
69410;SDS011;56604;48.652;9.194;2024-01-10T02:21:47;16.87;;;7.93;;
69410;SDS011;56604;48.652;9.194;2024-01-10T02:24:12;22.30;;;8.40;;
69410;SDS011;56604;48.652;9.194;2024-01-10T02:26:38;15.37;;;8.30;;
69410;SDS011;56604;48.652;9.194;2024-01-10T02:29:04;15.43;;;7.90;;
69410;SDS011;56604;48.652;9.194;2024-01-10T02:31:29;22.17;;;8.20;;
69410;SDS011;56604;48.652;9.194;2024-01-10T02:33:54;15.43;;;8.03;;
69410;SDS011;56604;48.652;9.194;2024-01-10T02:36:20;15.67;;;8.13;;
69410;SDS011;56604;48.652;9.194;2024-01-10T02:38:45;15.30;;;7.60;;
69410;SDS011;56604;48.652;9.194;2024-01-10T02:41:10;21.23;;;7.80;;
69410;SDS011;56604;48.652;9.194;2024-01-10T02:43:36;24.20;;;8.00;;
69410;SDS011;56604;48.652;9.194;2024-01-10T02:46:01;12.40;;;7.37;;
69410;SDS011;56604;48.652;9.194;2024-01-10T02:48:26;18.50;;;7.97;;
69410;SDS011;56604;48.652;9.194;2024-01-10T02:50:51;17.40;;;8.20;;
69410;SDS011;56604;48.652;9.194;2024-01-10T02:53:19;18.10;;;8.77;;
69410;SDS011;56604;48.652;9.194;2024-01-10T02:55:44;14.83;;;8.03;;
69410;SDS011;56604;48.652;9.194;2024-01-10T02:58:11;16.80;;;8.10;;
69410;SDS011;56604;48.652;9.194;2024-01-10T03:00:36;20.23;;;8.43;;
69410;SDS011;56604;48.652;9.194;2024-01-10T03:03:02;17.77;;;8.60;;
69410;SDS011;56604;48.652;9.194;2024-01-10T03:05:28;19.43;;;8.40;;
69410;SDS011;56604;48.652;9.194;2024-01-10T03:07:53;16.27;;;7.90;;
69410;SDS011;56604;48.652;9.194;2024-01-10T03:10:18;16.30;;;7.83;;
69410;SDS011;56604;48.652;9.194;2024-01-10T03:12:44;17.10;;;7.63;;
69410;SDS011;56604;48.652;9.194;2024-01-10T03:15:09;16.50;;;8.20;;
69410;SDS011;56604;48.652;9.194;2024-01-10T03:17:34;14.20;;;7.20;;
69410;SDS011;56604;48.652;9.194;2024-01-10T03:20:01;15.30;;;7.80;;
69410;SDS011;56604;48.652;9.194;2024-01-10T03:22:28;21.63;;;8.20;;
69410;SDS011;56604;48.652;9.194;2024-01-10T03:24:55;15.87;;;8.63;;
69410;SDS011;56604;48.652;9.194;2024-01-10T03:27:21;17.27;;;8.20;;
69410;SDS011;56604;48.652;9.194;2024-01-10T03:29:46;14.10;;;7.50;;
69410;SDS011;56604;48.652;9.194;2024-01-10T03:32:11;18.80;;;8.13;;
69410;SDS011;56604;48.652;9.194;2024-01-10T03:34:37;15.43;;;8.10;;
69410;SDS011;56604;48.652;9.194;2024-01-10T03:37:02;13.93;;;7.80;;
69410;SDS011;56604;48.652;9.194;2024-01-10T03:39:27;23.50;;;8.53;;
69410;SDS011;56604;48.652;9.194;2024-01-10T03:41:52;13.93;;;8.50;;
69410;SDS011;56604;48.652;9.194;2024-01-10T03:44:18;20.90;;;9.33;;
69410;SDS011;56604;48.652;9.194;2024-01-10T03:46:43;17.77;;;8.60;;
69410;SDS011;56604;48.652;9.194;2024-01-10T03:49:08;16.60;;;8.83;;
69410;SDS011;56604;48.652;9.194;2024-01-10T03:51:34;17.90;;;9.67;;
69410;SDS011;56604;48.652;9.194;2024-01-10T03:53:59;15.77;;;8.60;;
69410;SDS011;56604;48.652;9.194;2024-01-10T03:56:25;17.27;;;8.47;;
69410;SDS011;56604;48.652;9.194;2024-01-10T03:58:51;20.40;;;9.10;;
69410;SDS011;56604;48.652;9.194;2024-01-10T04:01:16;24.07;;;10.30;;
69410;SDS011;56604;48.652;9.194;2024-01-10T04:03:42;14.33;;;8.40;;
69410;SDS011;56604;48.652;9.194;2024-01-10T04:06:07;20.23;;;8.13;;
69410;SDS011;56604;48.652;9.194;2024-01-10T04:08:33;20.90;;;8.60;;
69410;SDS011;56604;48.652;9.194;2024-01-10T04:10:58;21.67;;;8.30;;
69410;SDS011;56604;48.652;9.194;2024-01-10T04:13:23;15.43;;;9.50;;
69410;SDS011;56604;48.652;9.194;2024-01-10T04:15:49;18.97;;;9.43;;
69410;SDS011;56604;48.652;9.194;2024-01-10T04:18:14;27.83;;;9.47;;
69410;SDS011;56604;48.652;9.194;2024-01-10T04:20:40;15.37;;;7.80;;
69410;SDS011;56604;48.652;9.194;2024-01-10T04:23:05;14.10;;;8.80;;
69410;SDS011;56604;48.652;9.194;2024-01-10T04:25:31;19.47;;;10.10;;
69410;SDS011;56604;48.652;9.194;2024-01-10T04:27:56;20.80;;;9.90;;
69410;SDS011;56604;48.652;9.194;2024-01-10T04:30:22;24.50;;;10.97;;
69410;SDS011;56604;48.652;9.194;2024-01-10T04:32:48;15.90;;;8.87;;
69410;SDS011;56604;48.652;9.194;2024-01-10T04:35:13;23.07;;;10.40;;
69410;SDS011;56604;48.652;9.194;2024-01-10T04:37:39;17.23;;;9.60;;
69410;SDS011;56604;48.652;9.194;2024-01-10T04:40:05;19.80;;;9.70;;
69410;SDS011;56604;48.652;9.194;2024-01-10T04:42:31;23.90;;;11.10;;
69410;SDS011;56604;48.652;9.194;2024-01-10T04:44:56;16.10;;;8.70;;
69410;SDS011;56604;48.652;9.194;2024-01-10T04:47:22;18.53;;;9.77;;
69410;SDS011;56604;48.652;9.194;2024-01-10T04:49:47;20.30;;;8.83;;
69410;SDS011;56604;48.652;9.194;2024-01-10T04:52:12;21.77;;;10.87;;
69410;SDS011;56604;48.652;9.194;2024-01-10T04:54:37;19.80;;;9.60;;
69410;SDS011;56604;48.652;9.194;2024-01-10T04:57:03;18.70;;;10.43;;
69410;SDS011;56604;48.652;9.194;2024-01-10T04:59:28;22.53;;;9.80;;
69410;SDS011;56604;48.652;9.194;2024-01-10T05:01:54;20.13;;;10.03;;
69410;SDS011;56604;48.652;9.194;2024-01-10T05:04:19;26.70;;;11.40;;
69410;SDS011;56604;48.652;9.194;2024-01-10T05:06:44;39.57;;;14.17;;
69410;SDS011;56604;48.652;9.194;2024-01-10T05:09:10;51.57;;;21.87;;
69410;SDS011;56604;48.652;9.194;2024-01-10T05:11:35;35.37;;;15.40;;
69410;SDS011;56604;48.652;9.194;2024-01-10T05:14:02;34.60;;;14.63;;
69410;SDS011;56604;48.652;9.194;2024-01-10T05:16:28;27.57;;;12.43;;
69410;SDS011;56604;48.652;9.194;2024-01-10T05:18:53;27.30;;;12.57;;
69410;SDS011;56604;48.652;9.194;2024-01-10T05:21:18;24.33;;;12.47;;
69410;SDS011;56604;48.652;9.194;2024-01-10T05:23:44;30.27;;;12.00;;
69410;SDS011;56604;48.652;9.194;2024-01-10T05:26:09;19.20;;;11.10;;
69410;SDS011;56604;48.652;9.194;2024-01-10T05:28:35;25.63;;;11.20;;
69410;SDS011;56604;48.652;9.194;2024-01-10T05:31:00;20.60;;;9.93;;
69410;SDS011;56604;48.652;9.194;2024-01-10T05:33:26;21.57;;;11.60;;
69410;SDS011;56604;48.652;9.194;2024-01-10T05:35:51;22.60;;;11.40;;
69410;SDS011;56604;48.652;9.194;2024-01-10T05:38:17;24.83;;;11.60;;
69410;SDS011;56604;48.652;9.194;2024-01-10T05:40:42;21.50;;;10.33;;
69410;SDS011;56604;48.652;9.194;2024-01-10T05:43:07;22.87;;;11.07;;
69410;SDS011;56604;48.652;9.194;2024-01-10T05:45:35;31.00;;;11.33;;
69410;SDS011;56604;48.652;9.194;2024-01-10T05:48:00;22.00;;;11.47;;
69410;SDS011;56604;48.652;9.194;2024-01-10T05:50:25;28.50;;;12.20;;
69410;SDS011;56604;48.652;9.194;2024-01-10T05:52:51;21.20;;;10.63;;
69410;SDS011;56604;48.652;9.194;2024-01-10T05:55:16;21.73;;;10.53;;
69410;SDS011;56604;48.652;9.194;2024-01-10T05:57:41;29.87;;;10.83;;
69410;SDS011;56604;48.652;9.194;2024-01-10T06:00:07;18.57;;;11.10;;
69410;SDS011;56604;48.652;9.194;2024-01-10T06:02:37;24.63;;;12.03;;
69410;SDS011;56604;48.652;9.194;2024-01-10T06:05:12;28.37;;;13.00;;
69410;SDS011;56604;48.652;9.194;2024-01-10T06:07:38;22.90;;;12.90;;
69410;SDS011;56604;48.652;9.194;2024-01-10T06:10:04;21.97;;;11.67;;
69410;SDS011;56604;48.652;9.194;2024-01-10T06:12:30;21.00;;;10.23;;
69410;SDS011;56604;48.652;9.194;2024-01-10T06:14:56;30.90;;;12.70;;
69410;SDS011;56604;48.652;9.194;2024-01-10T06:17:22;36.57;;;13.40;;
69410;SDS011;56604;48.652;9.194;2024-01-10T06:19:47;22.30;;;10.80;;
69410;SDS011;56604;48.652;9.194;2024-01-10T06:22:13;23.00;;;10.87;;
69410;SDS011;56604;48.652;9.194;2024-01-10T06:24:38;28.93;;;12.20;;
69410;SDS011;56604;48.652;9.194;2024-01-10T06:27:04;22.87;;;11.00;;
69410;SDS011;56604;48.652;9.194;2024-01-10T06:29:31;20.70;;;11.07;;
69410;SDS011;56604;48.652;9.194;2024-01-10T06:31:56;26.00;;;11.03;;
69410;SDS011;56604;48.652;9.194;2024-01-10T06:34:22;20.27;;;10.80;;
69410;SDS011;56604;48.652;9.194;2024-01-10T06:36:48;23.60;;;10.83;;
69410;SDS011;56604;48.652;9.194;2024-01-10T06:39:13;21.03;;;10.87;;
69410;SDS011;56604;48.652;9.194;2024-01-10T06:41:39;19.77;;;10.40;;
69410;SDS011;56604;48.652;9.194;2024-01-10T06:44:05;32.57;;;14.10;;
69410;SDS011;56604;48.652;9.194;2024-01-10T06:46:31;45.60;;;16.70;;
69410;SDS011;56604;48.652;9.194;2024-01-10T06:48:57;51.10;;;17.97;;
69410;SDS011;56604;48.652;9.194;2024-01-10T06:51:22;38.63;;;15.50;;
69410;SDS011;56604;48.652;9.194;2024-01-10T06:53:48;40.90;;;15.40;;
69410;SDS011;56604;48.652;9.194;2024-01-10T06:56:13;33.40;;;14.60;;
69410;SDS011;56604;48.652;9.194;2024-01-10T06:58:39;34.87;;;12.83;;
69410;SDS011;56604;48.652;9.194;2024-01-10T07:01:04;25.77;;;12.27;;
69410;SDS011;56604;48.652;9.194;2024-01-10T07:03:31;29.67;;;12.67;;
69410;SDS011;56604;48.652;9.194;2024-01-10T07:05:57;31.13;;;11.90;;
69410;SDS011;56604;48.652;9.194;2024-01-10T07:08:23;27.93;;;10.97;;
69410;SDS011;56604;48.652;9.194;2024-01-10T07:10:50;22.27;;;12.07;;
69410;SDS011;56604;48.652;9.194;2024-01-10T07:13:15;24.30;;;11.43;;
69410;SDS011;56604;48.652;9.194;2024-01-10T07:15:40;30.43;;;13.27;;
69410;SDS011;56604;48.652;9.194;2024-01-10T07:18:06;28.37;;;13.67;;
69410;SDS011;56604;48.652;9.194;2024-01-10T07:20:31;24.80;;;11.50;;
69410;SDS011;56604;48.652;9.194;2024-01-10T07:22:57;24.47;;;10.10;;
69410;SDS011;56604;48.652;9.194;2024-01-10T07:25:24;25.07;;;12.57;;
69410;SDS011;56604;48.652;9.194;2024-01-10T07:27:50;26.93;;;12.50;;
69410;SDS011;56604;48.652;9.194;2024-01-10T07:30:16;26.43;;;12.90;;
69410;SDS011;56604;48.652;9.194;2024-01-10T07:32:44;21.07;;;10.90;;
69410;SDS011;56604;48.652;9.194;2024-01-10T07:35:11;21.10;;;11.27;;
69410;SDS011;56604;48.652;9.194;2024-01-10T07:37:40;20.50;;;11.00;;
69410;SDS011;56604;48.652;9.194;2024-01-10T07:40:07;26.23;;;10.60;;
69410;SDS011;56604;48.652;9.194;2024-01-10T07:42:35;24.73;;;10.90;;
69410;SDS011;56604;48.652;9.194;2024-01-10T07:45:01;23.33;;;10.23;;
69410;SDS011;56604;48.652;9.194;2024-01-10T07:47:30;23.57;;;10.77;;
69410;SDS011;56604;48.652;9.194;2024-01-10T07:49:59;23.90;;;11.40;;
69410;SDS011;56604;48.652;9.194;2024-01-10T07:52:24;25.20;;;11.97;;
69410;SDS011;56604;48.652;9.194;2024-01-10T07:54:50;25.03;;;11.33;;
69410;SDS011;56604;48.652;9.194;2024-01-10T07:57:15;23.57;;;11.10;;
69410;SDS011;56604;48.652;9.194;2024-01-10T07:59:43;20.33;;;10.40;;
69410;SDS011;56604;48.652;9.194;2024-01-10T08:02:09;23.37;;;11.60;;
69410;SDS011;56604;48.652;9.194;2024-01-10T08:04:35;23.83;;;11.10;;
69410;SDS011;56604;48.652;9.194;2024-01-10T08:07:00;36.00;;;15.00;;
69410;SDS011;56604;48.652;9.194;2024-01-10T08:09:26;23.20;;;11.70;;
69410;SDS011;56604;48.652;9.194;2024-01-10T08:11:51;23.17;;;12.10;;
69410;SDS011;56604;48.652;9.194;2024-01-10T08:14:17;24.40;;;11.90;;
69410;SDS011;56604;48.652;9.194;2024-01-10T08:16:42;28.70;;;12.40;;
69410;SDS011;56604;48.652;9.194;2024-01-10T08:19:08;28.57;;;13.70;;
69410;SDS011;56604;48.652;9.194;2024-01-10T08:21:33;23.73;;;11.57;;
69410;SDS011;56604;48.652;9.194;2024-01-10T08:23:59;39.07;;;12.40;;
69410;SDS011;56604;48.652;9.194;2024-01-10T08:26:27;28.03;;;12.60;;
69410;SDS011;56604;48.652;9.194;2024-01-10T08:28:52;24.20;;;11.80;;
69410;SDS011;56604;48.652;9.194;2024-01-10T08:31:18;34.67;;;14.47;;
69410;SDS011;56604;48.652;9.194;2024-01-10T08:33:43;27.23;;;12.50;;
69410;SDS011;56604;48.652;9.194;2024-01-10T08:36:09;25.93;;;13.20;;
69410;SDS011;56604;48.652;9.194;2024-01-10T08:38:37;23.10;;;12.30;;
69410;SDS011;56604;48.652;9.194;2024-01-10T08:41:03;20.70;;;12.07;;
69410;SDS011;56604;48.652;9.194;2024-01-10T08:43:29;27.53;;;13.67;;
69410;SDS011;56604;48.652;9.194;2024-01-10T08:45:55;27.77;;;13.93;;
69410;SDS011;56604;48.652;9.194;2024-01-10T08:48:22;26.73;;;12.90;;
69410;SDS011;56604;48.652;9.194;2024-01-10T08:50:48;26.53;;;12.50;;
69410;SDS011;56604;48.652;9.194;2024-01-10T08:53:13;22.17;;;12.43;;
69410;SDS011;56604;48.652;9.194;2024-01-10T08:55:39;25.97;;;13.27;;
69410;SDS011;56604;48.652;9.194;2024-01-10T08:58:04;24.67;;;12.47;;
69410;SDS011;56604;48.652;9.194;2024-01-10T09:00:30;30.60;;;13.97;;
69410;SDS011;56604;48.652;9.194;2024-01-10T09:02:55;25.67;;;13.87;;
69410;SDS011;56604;48.652;9.194;2024-01-10T09:05:20;30.23;;;13.60;;
69410;SDS011;56604;48.652;9.194;2024-01-10T09:07:46;26.30;;;13.50;;
69410;SDS011;56604;48.652;9.194;2024-01-10T09:10:12;25.80;;;14.37;;
69410;SDS011;56604;48.652;9.194;2024-01-10T09:12:38;28.13;;;13.97;;
69410;SDS011;56604;48.652;9.194;2024-01-10T09:15:03;25.90;;;13.17;;
69410;SDS011;56604;48.652;9.194;2024-01-10T09:17:29;34.63;;;15.03;;
69410;SDS011;56604;48.652;9.194;2024-01-10T09:19:54;29.07;;;14.77;;
69410;SDS011;56604;48.652;9.194;2024-01-10T09:22:20;32.53;;;14.37;;
69410;SDS011;56604;48.652;9.194;2024-01-10T09:24:45;28.70;;;13.77;;
69410;SDS011;56604;48.652;9.194;2024-01-10T09:27:10;24.97;;;14.47;;
69410;SDS011;56604;48.652;9.194;2024-01-10T09:29:36;27.27;;;14.07;;
69410;SDS011;56604;48.652;9.194;2024-01-10T09:32:02;28.93;;;14.90;;
69410;SDS011;56604;48.652;9.194;2024-01-10T09:34:27;32.17;;;13.90;;
69410;SDS011;56604;48.652;9.194;2024-01-10T09:36:53;33.10;;;15.50;;
69410;SDS011;56604;48.652;9.194;2024-01-10T09:39:18;30.20;;;15.13;;
69410;SDS011;56604;48.652;9.194;2024-01-10T09:41:48;24.53;;;13.57;;
69410;SDS011;56604;48.652;9.194;2024-01-10T09:44:15;26.37;;;13.87;;
69410;SDS011;56604;48.652;9.194;2024-01-10T09:46:43;33.60;;;15.80;;
69410;SDS011;56604;48.652;9.194;2024-01-10T09:49:16;32.37;;;15.03;;
69410;SDS011;56604;48.652;9.194;2024-01-10T09:51:41;28.90;;;14.97;;
69410;SDS011;56604;48.652;9.194;2024-01-10T09:54:07;28.57;;;14.97;;
69410;SDS011;56604;48.652;9.194;2024-01-10T09:56:32;26.10;;;14.03;;
69410;SDS011;56604;48.652;9.194;2024-01-10T09:59:00;28.57;;;15.20;;
69410;SDS011;56604;48.652;9.194;2024-01-10T10:01:26;27.53;;;14.70;;
69410;SDS011;56604;48.652;9.194;2024-01-10T10:03:52;30.50;;;15.63;;
69410;SDS011;56604;48.652;9.194;2024-01-10T10:06:20;28.83;;;16.00;;
69410;SDS011;56604;48.652;9.194;2024-01-10T10:08:45;36.93;;;16.63;;
69410;SDS011;56604;48.652;9.194;2024-01-10T10:11:13;38.93;;;16.87;;
69410;SDS011;56604;48.652;9.194;2024-01-10T10:13:39;27.50;;;15.80;;
69410;SDS011;56604;48.652;9.194;2024-01-10T10:16:07;26.90;;;15.63;;
69410;SDS011;56604;48.652;9.194;2024-01-10T10:18:34;31.57;;;15.70;;
69410;SDS011;56604;48.652;9.194;2024-01-10T10:21:10;31.00;;;16.13;;
69410;SDS011;56604;48.652;9.194;2024-01-10T10:23:37;33.67;;;17.13;;
69410;SDS011;56604;48.652;9.194;2024-01-10T10:26:37;31.57;;;16.73;;
69410;SDS011;56604;48.652;9.194;2024-01-10T10:28:59;33.47;;;16.10;;
69410;SDS011;56604;48.652;9.194;2024-01-10T10:31:24;29.73;;;15.40;;
69410;SDS011;56604;48.652;9.194;2024-01-10T10:33:51;30.13;;;15.50;;
69410;SDS011;56604;48.652;9.194;2024-01-10T10:36:16;33.77;;;16.40;;
69410;SDS011;56604;48.652;9.194;2024-01-10T10:38:42;28.47;;;15.87;;
69410;SDS011;56604;48.652;9.194;2024-01-10T10:41:07;31.57;;;16.03;;
69410;SDS011;56604;48.652;9.194;2024-01-10T10:43:35;42.20;;;17.13;;
69410;SDS011;56604;48.652;9.194;2024-01-10T10:46:02;34.10;;;16.40;;
69410;SDS011;56604;48.652;9.194;2024-01-10T10:48:30;29.60;;;15.30;;
69410;SDS011;56604;48.652;9.194;2024-01-10T10:51:08;29.73;;;16.50;;
69410;SDS011;56604;48.652;9.194;2024-01-10T10:53:35;33.50;;;15.87;;
69410;SDS011;56604;48.652;9.194;2024-01-10T10:56:05;36.67;;;16.37;;
69410;SDS011;56604;48.652;9.194;2024-01-10T10:58:33;31.80;;;16.60;;
69410;SDS011;56604;48.652;9.194;2024-01-10T11:01:03;28.57;;;14.97;;
69410;SDS011;56604;48.652;9.194;2024-01-10T11:03:33;31.40;;;16.20;;
69410;SDS011;56604;48.652;9.194;2024-01-10T11:06:00;35.80;;;17.10;;
69410;SDS011;56604;48.652;9.194;2024-01-10T11:08:27;32.10;;;16.23;;
69410;SDS011;56604;48.652;9.194;2024-01-10T11:10:55;32.53;;;15.23;;
69410;SDS011;56604;48.652;9.194;2024-01-10T11:16:26;27.83;;;15.43;;
69410;SDS011;56604;48.652;9.194;2024-01-10T11:24:21;28.10;;;15.87;;
69410;SDS011;56604;48.652;9.194;2024-01-10T11:26:47;29.63;;;14.67;;
69410;SDS011;56604;48.652;9.194;2024-01-10T11:29:14;27.90;;;15.20;;
69410;SDS011;56604;48.652;9.194;2024-01-10T11:31:40;30.97;;;16.60;;
69410;SDS011;56604;48.652;9.194;2024-01-10T11:34:05;29.97;;;15.97;;
69410;SDS011;56604;48.652;9.194;2024-01-10T11:36:31;32.63;;;14.40;;
69410;SDS011;56604;48.652;9.194;2024-01-10T11:39:02;29.20;;;14.17;;
69410;SDS011;56604;48.652;9.194;2024-01-10T11:41:30;33.30;;;14.87;;
69410;SDS011;56604;48.652;9.194;2024-01-10T11:46:33;27.57;;;15.13;;
69410;SDS011;56604;48.652;9.194;2024-01-10T11:49:08;28.70;;;15.07;;
69410;SDS011;56604;48.652;9.194;2024-01-10T11:51:37;31.07;;;16.23;;
69410;SDS011;56604;48.652;9.194;2024-01-10T11:54:03;30.57;;;16.60;;
69410;SDS011;56604;48.652;9.194;2024-01-10T11:56:39;29.23;;;14.50;;
69410;SDS011;56604;48.652;9.194;2024-01-10T11:59:11;24.47;;;13.50;;
69410;SDS011;56604;48.652;9.194;2024-01-10T12:01:41;38.93;;;15.73;;
69410;SDS011;56604;48.652;9.194;2024-01-10T12:04:07;24.77;;;13.87;;
69410;SDS011;56604;48.652;9.194;2024-01-10T12:06:34;27.33;;;13.70;;
69410;SDS011;56604;48.652;9.194;2024-01-10T12:09:01;29.27;;;14.90;;
69410;SDS011;56604;48.652;9.194;2024-01-10T12:11:33;34.17;;;15.00;;
69410;SDS011;56604;48.652;9.194;2024-01-10T12:13:58;29.33;;;14.40;;
69410;SDS011;56604;48.652;9.194;2024-01-10T12:16:24;40.50;;;14.47;;
69410;SDS011;56604;48.652;9.194;2024-01-10T12:18:49;26.80;;;13.83;;
69410;SDS011;56604;48.652;9.194;2024-01-10T12:21:16;30.97;;;15.10;;
69410;SDS011;56604;48.652;9.194;2024-01-10T12:23:42;22.60;;;12.93;;
69410;SDS011;56604;48.652;9.194;2024-01-10T12:26:09;31.70;;;14.17;;
69410;SDS011;56604;48.652;9.194;2024-01-10T12:28:36;24.77;;;13.83;;
69410;SDS011;56604;48.652;9.194;2024-01-10T12:31:05;23.23;;;12.30;;
69410;SDS011;56604;48.652;9.194;2024-01-10T12:33:36;23.00;;;13.00;;
69410;SDS011;56604;48.652;9.194;2024-01-10T12:36:09;20.70;;;11.63;;
69410;SDS011;56604;48.652;9.194;2024-01-10T12:38:38;17.80;;;11.10;;
69410;SDS011;56604;48.652;9.194;2024-01-10T12:41:04;24.17;;;11.23;;
69410;SDS011;56604;48.652;9.194;2024-01-10T12:43:33;19.90;;;11.10;;
69410;SDS011;56604;48.652;9.194;2024-01-10T12:46:08;24.30;;;12.40;;
69410;SDS011;56604;48.652;9.194;2024-01-10T12:48:37;26.60;;;13.03;;
69410;SDS011;56604;48.652;9.194;2024-01-10T12:51:06;20.27;;;11.60;;
69410;SDS011;56604;48.652;9.194;2024-01-10T12:53:35;23.73;;;12.37;;
69410;SDS011;56604;48.652;9.194;2024-01-10T12:56:02;20.30;;;12.27;;
69410;SDS011;56604;48.652;9.194;2024-01-10T12:58:29;20.63;;;11.57;;
69410;SDS011;56604;48.652;9.194;2024-01-10T13:00:55;26.70;;;13.17;;
69410;SDS011;56604;48.652;9.194;2024-01-10T13:03:21;22.00;;;11.40;;
69410;SDS011;56604;48.652;9.194;2024-01-10T13:05:46;21.80;;;11.90;;
69410;SDS011;56604;48.652;9.194;2024-01-10T13:08:12;27.90;;;13.67;;
69410;SDS011;56604;48.652;9.194;2024-01-10T13:10:38;36.90;;;15.23;;
69410;SDS011;56604;48.652;9.194;2024-01-10T13:13:04;32.90;;;14.80;;
69410;SDS011;56604;48.652;9.194;2024-01-10T13:15:29;26.77;;;13.50;;
69410;SDS011;56604;48.652;9.194;2024-01-10T13:17:55;31.00;;;14.80;;
69410;SDS011;56604;48.652;9.194;2024-01-10T13:20:21;29.90;;;14.07;;
69410;SDS011;56604;48.652;9.194;2024-01-10T13:22:46;24.10;;;13.30;;
69410;SDS011;56604;48.652;9.194;2024-01-10T13:25:12;30.67;;;14.50;;
69410;SDS011;56604;48.652;9.194;2024-01-10T13:27:37;31.03;;;15.20;;
69410;SDS011;56604;48.652;9.194;2024-01-10T13:30:03;24.70;;;14.93;;
69410;SDS011;56604;48.652;9.194;2024-01-10T13:32:30;23.43;;;13.37;;
69410;SDS011;56604;48.652;9.194;2024-01-10T13:34:56;40.07;;;15.17;;
69410;SDS011;56604;48.652;9.194;2024-01-10T13:37:22;34.80;;;16.63;;
69410;SDS011;56604;48.652;9.194;2024-01-10T13:39:47;26.90;;;14.37;;
69410;SDS011;56604;48.652;9.194;2024-01-10T13:42:12;27.53;;;14.47;;
69410;SDS011;56604;48.652;9.194;2024-01-10T13:44:38;30.60;;;14.93;;
69410;SDS011;56604;48.652;9.194;2024-01-10T13:47:04;30.20;;;14.50;;
69410;SDS011;56604;48.652;9.194;2024-01-10T13:49:29;22.73;;;13.37;;
69410;SDS011;56604;48.652;9.194;2024-01-10T13:51:55;27.60;;;15.07;;
69410;SDS011;56604;48.652;9.194;2024-01-10T13:54:20;31.00;;;15.20;;
69410;SDS011;56604;48.652;9.194;2024-01-10T13:56:46;30.60;;;14.03;;
69410;SDS011;56604;48.652;9.194;2024-01-10T13:59:12;34.10;;;14.07;;
69410;SDS011;56604;48.652;9.194;2024-01-10T14:01:37;27.07;;;13.63;;
69410;SDS011;56604;48.652;9.194;2024-01-10T14:04:03;24.33;;;14.87;;
69410;SDS011;56604;48.652;9.194;2024-01-10T14:06:28;32.57;;;15.20;;
69410;SDS011;56604;48.652;9.194;2024-01-10T14:08:54;26.67;;;13.37;;
69410;SDS011;56604;48.652;9.194;2024-01-10T14:11:19;27.90;;;13.77;;
69410;SDS011;56604;48.652;9.194;2024-01-10T14:13:45;30.10;;;15.07;;
69410;SDS011;56604;48.652;9.194;2024-01-10T14:16:10;26.90;;;14.53;;
69410;SDS011;56604;48.652;9.194;2024-01-10T14:18:36;28.93;;;14.37;;
69410;SDS011;56604;48.652;9.194;2024-01-10T14:21:01;31.17;;;15.87;;
69410;SDS011;56604;48.652;9.194;2024-01-10T14:23:27;33.50;;;15.30;;
69410;SDS011;56604;48.652;9.194;2024-01-10T14:25:52;33.07;;;15.20;;
69410;SDS011;56604;48.652;9.194;2024-01-10T14:28:18;32.40;;;15.30;;
69410;SDS011;56604;48.652;9.194;2024-01-10T14:30:46;31.83;;;15.60;;